Madison, Pennsylvania
Current Conditions -  °F | °C
As of 10:50 AM on Saturday 25 Oct 2014 (Local Time) from KLBE Reporting Station
Broken Clouds Broken Clouds  
Wind Chill: 13°   Ceiling: 2500
Heat Index: 13°   Visibility: 10mi
Dew Point:   Wind: 18mph
Humidity: 67%   Direction: 210°SSW
Pressure: 29.96"   Gusts: NA
Location:  40.25°N, 79.68°W
Report Text: KLBE 251450Z 21016KT 10SM BKN025 13/07 A2996
Loading
Personal Weather Stations






























Interactive Weather Map
Tropical Storm Tracking
New forecast layout! Learn more

10-Day Weather Forecast

Advertisements
Track Severe Weather on mobile